createdAt,value
2018-12-10T00:02:04.415Z,97095.66
2018-12-10T00:04:46.327Z,97094.22
2018-12-10T00:07:22.084Z,97108.34
2018-12-10T00:10:04.623Z,97110.05
2018-12-10T00:12:46.070Z,97118.38
2018-12-10T00:15:33.167Z,97123.46
2018-12-10T00:18:06.343Z,97131.94
2018-12-10T00:20:41.061Z,97133.47
2018-12-10T00:23:27.745Z,97142.63
2018-12-10T00:26:09.676Z,97149.42
2018-12-10T00:28:42.380Z,97146.48
2018-12-10T00:31:24.019Z,97153.02
2018-12-10T00:34:06.138Z,97154.23
2018-12-10T00:36:53.113Z,97161.75
2018-12-10T00:39:26.251Z,97168.24
2018-12-10T00:42:14.155Z,97180.39
2018-12-10T00:44:56.015Z,97174.47
2018-12-10T00:47:39.609Z,97180.61
2018-12-10T00:50:20.917Z,97193.84
2018-12-10T00:56:02.905Z,97205.42
2018-12-10T00:58:37.296Z,97213.00
2018-12-10T01:01:18.180Z,97219.53
2018-12-10T01:06:31.441Z,97233.03
2018-12-10T01:09:05.562Z,97234.70
2018-12-10T01:11:46.679Z,97236.14
2018-12-10T01:14:28.503Z,97245.06
2018-12-10T01:17:14.370Z,97245.80
2018-12-10T01:19:55.771Z,97240.34
2018-12-10T01:22:37.904Z,97250.19
2018-12-10T01:25:19.784Z,97251.66
2018-12-10T01:27:53.297Z,97248.72
2018-12-10T01:30:34.928Z,97262.27
2018-12-10T01:33:06.299Z,97271.66
2018-12-10T01:35:48.023Z,97259.11
2018-12-10T01:38:23.489Z,97266.52
2018-12-10T01:40:58.441Z,97270.11
2018-12-10T01:43:28.983Z,97270.60
2018-12-10T01:46:10.086Z,97278.27
2018-12-10T01:48:41.332Z,97285.23
2018-12-10T01:51:23.166Z,97288.69
2018-12-10T01:54:05.203Z,97287.05
2018-12-10T01:56:47.055Z,97286.79
2018-12-10T01:59:29.111Z,97299.48
2018-12-10T02:02:13.184Z,97294.84
2018-12-10T02:07:27.115Z,97301.28
2018-12-10T02:10:09.163Z,97312.27
2018-12-10T02:12:50.799Z,97312.61
2018-12-10T02:15:32.495Z,97310.64
2018-12-10T02:18:05.779Z,97317.77
2018-12-10T02:20:46.918Z,97316.76
2018-12-10T02:23:28.787Z,97323.61
2018-12-10T02:26:10.502Z,97325.32
2018-12-10T02:28:48.917Z,97324.28
2018-12-10T02:31:30.523Z,97332.19
2018-12-10T02:34:12.487Z,97333.06
2018-12-10T02:36:54.297Z,97340.23
2018-12-10T02:39:26.651Z,97345.11
2018-12-10T02:42:08.666Z,97340.34
2018-12-10T02:44:50.631Z,97339.86
2018-12-10T02:47:32.399Z,97347.00
2018-12-10T02:50:06.163Z,97339.59
2018-12-10T02:52:48.120Z,97338.55
2018-12-10T02:55:30.117Z,97341.30
2018-12-10T02:58:03.227Z,97350.06
2018-12-10T03:00:45.172Z,97349.56
2018-12-10T03:03:27.131Z,97351.08
2018-12-10T03:06:11.604Z,97354.67
2018-12-10T03:08:44.375Z,97359.67
2018-12-10T03:11:26.523Z,97362.48
2018-12-10T03:13:57.524Z,97357.38
2018-12-10T03:16:43.138Z,97367.78
2018-12-10T03:19:13.689Z,97365.42
2018-12-10T03:21:49.308Z,97371.45
2018-12-10T03:24:35.638Z,97369.47
2018-12-10T03:27:20.061Z,97375.20
2018-12-10T03:30:01.442Z,97379.02
2018-12-10T03:32:42.796Z,97377.47
2018-12-10T03:35:24.657Z,97384.08
2018-12-10T03:37:57.749Z,97381.81
2018-12-10T03:40:39.670Z,97385.48
2018-12-10T03:43:15.543Z,97394.05
2018-12-10T03:45:56.846Z,97394.03
2018-12-10T03:48:30.124Z,97389.89
2018-12-10T03:51:12.029Z,97390.97
2018-12-10T03:53:53.990Z,97391.52
2018-12-10T03:56:35.866Z,97378.41
2018-12-10T03:59:10.624Z,97377.44
2018-12-10T04:01:52.138Z,97376.47
2018-12-10T04:04:34.182Z,97378.45
2018-12-10T04:07:05.209Z,97377.63
2018-12-10T04:09:38.508Z,97375.30
2018-12-10T04:12:20.418Z,97372.34
2018-12-10T04:14:58.126Z,97370.67
2018-12-10T04:17:44.315Z,97374.05
2018-12-10T04:20:26.178Z,97365.38
2018-12-10T04:23:09.244Z,97369.98
2018-12-10T04:25:50.965Z,97371.80
2018-12-10T04:28:26.517Z,97371.70
2018-12-10T04:31:07.996Z,97370.51
2018-12-10T04:33:49.976Z,97371.81
2018-12-10T04:36:31.125Z,97363.70
2018-12-10T04:39:05.802Z,97362.23
2018-12-10T04:41:47.230Z,97368.82
2018-12-10T04:44:29.249Z,97365.91
2018-12-10T04:47:11.401Z,97365.38
2018-12-10T04:49:44.248Z,97355.42
2018-12-10T04:52:17.589Z,97358.27
2018-12-10T04:54:59.502Z,97365.26
2018-12-10T04:57:41.419Z,97367.00
2018-12-10T05:00:23.428Z,97367.08
2018-12-10T05:02:59.056Z,97364.11
2018-12-10T05:05:40.484Z,97367.66
2018-12-10T05:08:13.460Z,97368.82
2018-12-10T05:10:54.577Z,97367.98
2018-12-10T05:13:36.619Z,97366.36
2018-12-10T05:16:17.766Z,97370.65
2018-12-10T05:18:50.680Z,97372.39
2018-12-10T05:21:32.148Z,97378.64
2018-12-10T05:24:04.554Z,97382.50
2018-12-10T05:26:35.791Z,97382.30
2018-12-10T05:29:08.977Z,97376.55
2018-12-10T05:31:50.867Z,97382.10
2018-12-10T05:34:32.716Z,97386.77
2018-12-10T05:37:14.430Z,97385.16
2018-12-10T05:39:50.048Z,97391.43
2018-12-10T05:42:31.385Z,97396.20
2018-12-10T05:45:13.469Z,97395.22
2018-12-10T05:47:47.759Z,97407.36
2018-12-10T05:50:29.614Z,97411.80
2018-12-10T05:53:11.463Z,97418.50
2018-12-10T05:55:53.415Z,97419.87
2018-12-10T05:58:25.789Z,97426.48
2018-12-10T06:00:57.072Z,97421.88
2018-12-10T06:03:38.946Z,97421.00
2018-12-10T06:06:20.831Z,97424.89
2018-12-10T06:08:56.281Z,97432.03
2018-12-10T06:11:41.683Z,97433.81
2018-12-10T06:14:17.201Z,97439.56
2018-12-10T06:16:58.513Z,97440.77
2018-12-10T06:19:31.804Z,97437.70
2018-12-10T06:22:13.926Z,97435.38
2018-12-10T06:24:57.755Z,97436.78
2018-12-10T06:27:39.745Z,97440.75
2018-12-10T06:30:20.806Z,97442.25
2018-12-10T06:33:02.775Z,97442.33
2018-12-10T06:35:44.556Z,97445.41
2018-12-10T06:38:20.065Z,97449.02
2018-12-10T06:40:55.077Z,97446.61
2018-12-10T06:43:25.780Z,97447.63
2018-12-10T06:46:07.846Z,97448.95
2018-12-10T06:48:41.883Z,97453.88
2018-12-10T06:51:23.652Z,97458.09
2018-12-10T06:54:05.633Z,97451.36
2018-12-10T06:56:41.335Z,97465.36
2018-12-10T06:59:13.769Z,97463.84
2018-12-10T07:01:59.632Z,97468.91
2018-12-10T07:04:41.629Z,97481.47
2018-12-10T07:07:41.648Z,97479.28
2018-12-10T07:10:22.948Z,97486.78
2018-12-10T07:13:03.995Z,97492.72
2018-12-10T07:15:36.287Z,97485.20
2018-12-10T07:18:11.824Z,97490.05
2018-12-10T07:20:53.280Z,97497.77
2018-12-10T07:23:35.147Z,97501.84
2018-12-10T07:26:10.929Z,97515.09
2018-12-10T07:28:44.176Z,97512.62
2018-12-10T07:31:26.228Z,97518.48
2018-12-10T07:34:08.135Z,97522.52
2018-12-10T07:36:50.160Z,97526.62
2018-12-10T07:39:23.322Z,97525.86
2018-12-10T07:42:05.248Z,97525.73
2018-12-10T07:44:46.300Z,97525.80
2018-12-10T07:47:28.176Z,97516.80
2018-12-10T07:50:02.881Z,97523.76
2018-12-10T07:52:33.528Z,97530.58
2018-12-10T07:55:15.611Z,97533.51
2018-12-10T07:57:48.791Z,97547.09
2018-12-10T08:00:24.132Z,97551.96
2018-12-10T08:02:59.296Z,97548.44
2018-12-10T08:05:40.752Z,97556.80
2018-12-10T08:08:13.928Z,97558.65
2018-12-10T08:10:48.633Z,97565.11
2018-12-10T08:13:19.220Z,97568.77
2018-12-10T08:16:01.169Z,97571.22
2018-12-10T08:18:34.122Z,97579.18
2018-12-10T08:21:15.197Z,97576.86
2018-12-10T08:23:50.768Z,97571.70
2018-12-10T08:26:32.128Z,97577.34
2018-12-10T08:29:07.470Z,97574.98
2018-12-10T08:31:49.053Z,97584.91
2018-12-10T08:34:20.199Z,97585.78
2018-12-10T08:37:02.044Z,97588.67
2018-12-10T08:39:35.195Z,97593.45
2018-12-10T08:42:06.328Z,97591.54
2018-12-10T08:44:48.171Z,97595.02
2018-12-10T08:47:30.240Z,97600.28
2018-12-10T08:50:12.079Z,97599.08
2018-12-10T08:52:44.403Z,97603.47
2018-12-10T08:55:19.067Z,97605.72
2018-12-10T08:57:51.887Z,97618.55
2018-12-10T09:00:33.780Z,97614.14
2018-12-10T09:03:15.660Z,97618.34
2018-12-10T09:05:48.008Z,97625.39
2018-12-10T09:08:21.445Z,97625.64
2018-12-10T09:10:56.890Z,97623.86
2018-12-10T09:16:10.956Z,97623.98
2018-12-10T09:18:44.459Z,97626.95
2018-12-10T09:21:15.431Z,97630.09
2018-12-10T09:23:57.284Z,97630.74
2018-12-10T09:26:39.215Z,97637.67
2018-12-10T09:29:11.544Z,97636.16
2018-12-10T09:31:52.945Z,97637.73
2018-12-10T09:34:28.252Z,97642.73
2018-12-10T09:37:09.767Z,97647.50
2018-12-10T09:39:42.879Z,97644.08
2018-12-10T09:42:24.080Z,97646.45
2018-12-10T09:45:06.635Z,97653.16
2018-12-10T09:47:41.648Z,97655.62
2018-12-10T09:50:16.641Z,97651.98
2018-12-10T09:52:58.170Z,97655.31
2018-12-10T09:55:40.223Z,97661.34
2018-12-10T09:58:12.659Z,97653.00
2018-12-10T10:00:54.384Z,97662.11
2018-12-10T10:03:35.604Z,97649.65
2018-12-10T10:06:17.372Z,97644.86
2018-12-10T10:08:50.519Z,97640.52
2018-12-10T10:11:32.268Z,97639.52
2018-12-10T10:16:46.171Z,97643.16
2018-12-10T10:19:19.446Z,97640.56
2018-12-10T10:22:01.352Z,97642.64
2018-12-10T10:24:43.387Z,97636.63
2018-12-10T10:27:25.212Z,97643.23
2018-12-10T10:30:07.068Z,97640.09
2018-12-10T10:32:49.027Z,97635.20
2018-12-10T10:35:30.871Z,97633.62
2018-12-10T10:38:03.844Z,97625.75
2018-12-10T10:40:45.661Z,97622.86
2018-12-10T10:43:16.787Z,97627.11
2018-12-10T10:45:58.747Z,97624.05
2018-12-10T10:48:31.889Z,97615.98
2018-12-10T10:51:12.947Z,97619.52
2018-12-10T10:53:54.851Z,97616.73
2018-12-10T10:56:30.184Z,97612.66
2018-12-10T10:59:05.404Z,97611.93
2018-12-10T11:01:45.647Z,97612.54
2018-12-10T11:04:27.575Z,97619.40
2018-12-10T11:07:09.577Z,97609.30
2018-12-10T11:09:42.142Z,97613.67
2018-12-10T11:12:23.911Z,97622.84
2018-12-10T11:17:37.782Z,97621.63
2018-12-10T11:20:19.744Z,97621.16
2018-12-10T11:22:52.916Z,97619.94
2018-12-10T11:25:33.993Z,97619.20
2018-12-10T11:28:07.152Z,97627.44
2018-12-10T11:30:48.260Z,97629.97
2018-12-10T11:33:29.408Z,97620.52
2018-12-10T11:36:11.339Z,97612.59
2018-12-10T11:38:44.587Z,97611.41
2018-12-10T11:41:15.725Z,97617.08
2018-12-10T11:43:57.611Z,97620.39
2018-12-10T11:46:44.556Z,97621.00
2018-12-10T11:49:17.715Z,97625.02
2018-12-10T11:51:57.109Z,97619.00
2018-12-10T11:54:38.767Z,97611.69
2018-12-10T11:57:22.712Z,97612.50
2018-12-10T12:00:04.795Z,97611.56
2018-12-10T12:02:46.645Z,97606.77
2018-12-10T12:05:32.571Z,97600.54
2018-12-10T12:08:14.512Z,97598.23
2018-12-10T12:10:56.463Z,97605.55
2018-12-10T12:13:38.405Z,97601.42
2018-12-10T12:16:19.639Z,97588.78
2018-12-10T12:18:53.104Z,97598.33
2018-12-10T12:21:34.780Z,97588.19
2018-12-10T12:24:22.586Z,97586.88
2018-12-10T12:27:03.699Z,97585.84
2018-12-10T12:29:36.831Z,97583.95
2018-12-10T12:32:19.691Z,97582.59
2018-12-10T12:35:07.612Z,97573.41
2018-12-10T12:37:47.284Z,97564.62
2018-12-10T12:40:32.429Z,97561.28
2018-12-10T12:43:16.101Z,97562.53
2018-12-10T12:45:51.239Z,97554.73
2018-12-10T12:48:30.491Z,97565.91
2018-12-10T12:51:03.016Z,97566.46
2018-12-10T12:53:38.536Z,97570.66
2018-12-10T12:56:20.084Z,97574.33
2018-12-10T12:58:53.319Z,97577.52
2018-12-10T13:01:36.248Z,97577.52
2018-12-10T13:04:14.735Z,97579.14
2018-12-10T13:06:45.320Z,97572.54
2018-12-10T13:09:21.893Z,97575.50
2018-12-10T13:12:02.519Z,97585.73
2018-12-10T13:14:44.615Z,97583.75
2018-12-10T13:17:26.427Z,97591.48
2018-12-10T13:20:07.615Z,97584.14
2018-12-10T13:22:49.391Z,97577.36
2018-12-10T13:25:31.209Z,97565.70
2018-12-10T13:28:19.464Z,97564.49
2018-12-10T13:31:01.101Z,97565.45
2018-12-10T13:33:43.004Z,97565.77
2018-12-10T13:36:26.987Z,97592.50
2018-12-10T13:39:00.216Z,97580.57
2018-12-10T13:41:41.363Z,97572.16
2018-12-10T13:47:23.135Z,97561.20
2018-12-10T13:50:00.374Z,97559.20
2018-12-10T13:52:41.862Z,97559.23
2018-12-10T13:55:28.778Z,97559.44
2018-12-10T13:57:59.061Z,97552.13
2018-12-10T14:00:40.859Z,97548.96
2018-12-10T14:03:12.171Z,97549.89
2018-12-10T14:05:53.947Z,97542.40
2018-12-10T14:08:27.307Z,97541.27
2018-12-10T14:11:09.205Z,97547.34
2018-12-10T14:13:51.388Z,97546.45
2018-12-10T14:16:22.564Z,97543.42
2018-12-10T14:18:57.877Z,97548.39
2018-12-10T14:21:39.176Z,97544.74
2018-12-10T14:24:21.227Z,97540.27
2018-12-10T14:26:56.561Z,97533.22
2018-12-10T14:29:31.851Z,97532.99
2018-12-10T14:32:13.485Z,97535.75
2018-12-10T14:34:44.464Z,97530.75
2018-12-10T14:37:26.340Z,97518.13
2018-12-10T14:40:08.103Z,97512.17
2018-12-10T14:42:55.267Z,97513.06
2018-12-10T14:45:36.960Z,97521.03
2018-12-10T14:48:10.033Z,97520.84
2018-12-10T14:50:52.004Z,97521.75
2018-12-10T14:53:33.715Z,97509.84
2018-12-10T14:56:04.957Z,97511.97
2018-12-10T14:58:37.988Z,97507.36
2018-12-10T15:01:19.997Z,97512.09
2018-12-10T15:04:04.061Z,97504.42
2018-12-10T15:06:46.004Z,97505.33
2018-12-10T15:09:21.615Z,97504.80
2018-12-10T15:11:52.152Z,97496.62
2018-12-10T15:14:34.092Z,97505.72
2018-12-10T15:20:16.694Z,97499.28
2018-12-10T15:22:52.439Z,97504.08
2018-12-10T15:25:34.488Z,97509.77
2018-12-10T15:28:09.487Z,97517.31
2018-12-10T15:30:51.656Z,97519.03
2018-12-10T15:33:33.571Z,97507.95
2018-12-10T15:36:09.082Z,97513.02
2018-12-10T15:38:49.060Z,97528.42
2018-12-10T15:41:30.412Z,97528.44
2018-12-10T15:44:06.056Z,97528.61
2018-12-10T15:46:47.936Z,97526.83
2018-12-10T15:49:20.847Z,97522.07
2018-12-10T15:52:00.314Z,97512.19
2018-12-10T15:54:42.088Z,97510.91
2018-12-10T15:57:24.204Z,97512.67
2018-12-10T16:00:05.775Z,97513.70
2018-12-10T16:02:47.173Z,97518.41
2018-12-10T16:05:28.987Z,97524.97
2018-12-10T16:08:02.440Z,97532.95
2018-12-10T16:10:34.428Z,97539.58
2018-12-10T16:13:16.447Z,97544.53
2018-12-10T16:15:58.375Z,97551.92
2018-12-10T16:18:30.684Z,97558.06
2018-12-10T16:21:12.855Z,97559.13
2018-12-10T16:23:45.931Z,97554.58
2018-12-10T16:26:27.670Z,97546.52
2018-12-10T16:29:00.959Z,97537.77
2018-12-10T16:31:42.712Z,97539.05
2018-12-10T16:34:24.651Z,97534.61
2018-12-10T16:37:06.684Z,97540.63
2018-12-10T16:39:43.902Z,97538.87
2018-12-10T16:42:25.704Z,97537.45
2018-12-10T16:45:07.976Z,97539.66
2018-12-10T16:47:40.968Z,97541.47
2018-12-10T16:50:22.935Z,97540.38
2018-12-10T16:53:04.749Z,97538.48
2018-12-10T16:55:46.740Z,97540.38
2018-12-10T16:58:19.719Z,97546.85
2018-12-10T17:01:00.796Z,97543.02
2018-12-10T17:03:44.399Z,97556.88
2018-12-10T17:06:25.632Z,97551.25
2018-12-10T17:08:58.585Z,97561.02
2018-12-10T17:11:40.800Z,97553.59
2018-12-10T17:14:22.547Z,97551.81
2018-12-10T17:16:53.687Z,97556.16
2018-12-10T17:19:27.609Z,97556.79
2018-12-10T17:22:00.218Z,97553.46
2018-12-10T17:24:41.925Z,97552.44
2018-12-10T17:27:23.857Z,97552.30
2018-12-10T17:30:06.364Z,97551.87
2018-12-10T17:32:47.612Z,97548.69
2018-12-10T17:35:23.198Z,97545.13
2018-12-10T17:37:55.891Z,97553.38
2018-12-10T17:40:28.980Z,97541.66
2018-12-10T17:43:10.818Z,97561.95
2018-12-10T17:45:43.283Z,97553.98
2018-12-10T17:48:16.097Z,97558.32
2018-12-10T17:50:57.779Z,97568.73
2018-12-10T17:53:39.881Z,97573.73
2018-12-10T17:56:15.166Z,97574.62
2018-12-10T17:58:47.795Z,97581.61
2018-12-10T18:01:30.224Z,97589.45
2018-12-10T18:04:07.876Z,97586.51
2018-12-10T18:06:49.550Z,97591.37
2018-12-10T18:09:22.522Z,97595.42
2018-12-10T18:12:04.547Z,97598.70
2018-12-10T18:14:46.420Z,97593.56
2018-12-10T18:17:29.432Z,97608.84
2018-12-10T18:20:15.543Z,97601.34
2018-12-10T18:22:57.603Z,97594.40
2018-12-10T18:25:44.930Z,97595.30
2018-12-10T18:28:33.460Z,97605.17
2018-12-10T18:31:16.596Z,97598.83
2018-12-10T18:34:01.225Z,97600.13
2018-12-10T18:36:54.907Z,97605.83
2018-12-10T18:39:27.577Z,97609.95
2018-12-10T18:42:09.316Z,97608.96
2018-12-10T18:44:41.616Z,97613.67
2018-12-10T18:47:24.231Z,97617.48
2018-12-10T18:50:01.990Z,97608.28
2018-12-10T18:52:43.614Z,97620.91
2018-12-10T18:55:19.103Z,97610.91
2018-12-10T18:57:52.199Z,97612.27
2018-12-10T19:00:48.170Z,97601.06
2018-12-10T19:03:20.216Z,97605.00
2018-12-10T19:06:06.166Z,97600.25
2018-12-10T19:08:51.013Z,97601.95
2018-12-10T19:11:33.189Z,97606.40
2018-12-10T19:14:06.753Z,97595.88
2018-12-10T19:16:48.665Z,97601.47
2018-12-10T19:19:24.314Z,97605.94
2018-12-10T19:21:58.106Z,97596.42
2018-12-10T19:24:39.359Z,97598.41
2018-12-10T19:27:29.030Z,97612.05
2018-12-10T19:30:14.381Z,97610.93
2018-12-10T19:32:56.335Z,97614.70
2018-12-10T19:35:37.612Z,97612.23
2018-12-10T19:38:27.236Z,97613.94
2018-12-10T19:41:13.723Z,97616.85
2018-12-10T19:43:55.542Z,97609.67
2018-12-10T19:46:31.011Z,97612.31
2018-12-10T19:49:10.266Z,97609.84
2018-12-10T19:51:56.795Z,97605.76
2018-12-10T19:54:34.035Z,97597.52
2018-12-10T19:57:22.895Z,97595.09
2018-12-10T20:00:11.773Z,97591.39
2018-12-10T20:02:46.885Z,97594.19
2018-12-10T20:05:34.767Z,97593.16
2018-12-10T20:08:12.698Z,97583.84
2018-12-10T20:10:46.557Z,97591.22
2018-12-10T20:13:28.858Z,97579.64
2018-12-10T20:16:17.994Z,97585.72
2018-12-10T20:18:53.393Z,97586.80
2018-12-10T20:21:46.342Z,97590.00
2018-12-10T20:24:28.570Z,97587.80
2018-12-10T20:27:25.131Z,97584.90
2018-12-10T20:30:06.392Z,97584.75
2018-12-10T20:32:54.085Z,97592.75
2018-12-10T20:35:40.017Z,97594.34
2018-12-10T20:38:13.539Z,97596.52
2018-12-10T20:40:57.727Z,97590.00
2018-12-10T20:43:41.140Z,97595.42
2018-12-10T20:46:32.104Z,97595.76
2018-12-10T20:49:11.061Z,97601.34
2018-12-10T20:51:54.287Z,97599.33
2018-12-10T20:54:40.480Z,97596.80
2018-12-10T20:57:21.972Z,97594.93
2018-12-10T20:59:56.635Z,97594.73
2018-12-10T21:02:32.147Z,97592.86
2018-12-10T21:05:14.750Z,97581.18
2018-12-10T21:07:50.410Z,97593.61
2018-12-10T21:10:34.071Z,97589.08
2018-12-10T21:13:16.812Z,97581.41
2018-12-10T21:16:00.860Z,97587.56
2018-12-10T21:18:34.183Z,97585.87
2018-12-10T21:21:21.738Z,97583.28
2018-12-10T21:24:03.627Z,97580.45
2018-12-10T21:26:46.098Z,97589.62
2018-12-10T21:29:26.026Z,97593.91
2018-12-10T21:32:07.634Z,97597.35
2018-12-10T21:34:53.048Z,97597.71
2018-12-10T21:37:35.991Z,97598.00
2018-12-10T21:40:17.224Z,97609.27
2018-12-10T21:42:56.028Z,97599.45
2018-12-10T21:45:39.313Z,97608.98
2018-12-10T21:48:15.514Z,97601.93
2018-12-10T21:50:57.858Z,97604.94
2018-12-10T21:53:43.478Z,97617.92
2018-12-10T21:56:15.694Z,97617.52
2018-12-10T21:58:53.614Z,97620.16
2018-12-10T22:01:36.034Z,97624.69
2018-12-10T22:04:18.786Z,97616.95
2018-12-10T22:06:57.055Z,97618.61
2018-12-10T22:09:31.447Z,97626.78
2018-12-10T22:12:12.453Z,97624.10
2018-12-10T22:14:56.327Z,97621.41
2018-12-10T22:17:45.714Z,97637.50
2018-12-10T22:20:29.497Z,97638.64
2018-12-10T22:23:11.143Z,97645.05
2018-12-10T22:25:52.871Z,97644.57
2018-12-10T22:28:25.987Z,97636.08
2018-12-10T22:31:11.393Z,97630.26
2018-12-10T22:33:51.788Z,97629.30
2018-12-10T22:36:26.809Z,97631.77
2018-12-10T22:38:59.696Z,97627.05
2018-12-10T22:41:41.514Z,97627.42
2018-12-10T22:44:23.483Z,97624.92
2018-12-10T22:47:07.184Z,97620.47
2018-12-10T22:49:39.983Z,97620.42
2018-12-10T22:52:21.760Z,97614.66
2018-12-10T22:55:03.490Z,97619.91
2018-12-10T22:57:45.356Z,97621.30
2018-12-10T23:00:32.315Z,97618.83
2018-12-10T23:03:03.596Z,97614.77
2018-12-10T23:05:45.313Z,97618.93
2018-12-10T23:08:18.921Z,97612.29
2018-12-10T23:11:00.583Z,97614.69
2018-12-10T23:13:49.209Z,97619.09
2018-12-10T23:16:27.176Z,97614.42
2018-12-10T23:19:02.990Z,97624.18
2018-12-10T23:21:36.277Z,97624.15
2018-12-10T23:24:17.711Z,97624.91
2018-12-10T23:26:55.250Z,97629.36
2018-12-10T23:29:28.019Z,97625.69
2018-12-10T23:32:03.712Z,97624.38
2018-12-10T23:34:46.712Z,97626.02
2018-12-10T23:37:29.418Z,97623.84
2018-12-10T23:40:11.060Z,97624.44
2018-12-10T23:42:48.511Z,97630.47
2018-12-10T23:45:19.823Z,97631.89
2018-12-10T23:47:52.502Z,97631.69
2018-12-10T23:50:34.181Z,97633.25
2018-12-10T23:53:13.519Z,97620.29
2018-12-10T23:55:55.224Z,97624.72
2018-12-10T23:58:28.428Z,97624.39
